Weather at Las Brujas Airport

Public forecast

Using degrees Celsius for public forecast. Weather courtesy of forecast.io.

Current aviation weather report (METAR) for Las Brujas Airport

Report is more than 6 hours old.

Retrieved 2021/04/12 14:00 UTC (2 months ago):

SKCZ 121400Z VRB03KT 8000 VCFG SCT015 28/24 Q1009 RMK A2980 VCFG/SW

Closest aviation forecast (TAF) to Las Brujas Airport

Closest forecast is Rafael Nuñez International Airport, 68.0 nm (125.9 km) NNW. Retrieved 2021/06/12 18:00 UTC (3 hours ago):

TAF SKCG 121630Z 1218/1318 32010KT 9999 SCT017 TEMPO 1219/1224 5000 TSRA SCT015CB BKN070 BECMG 1302/1304 VRB02KT TX32/1218Z TN26/1711Z